createdAt,value
2022-12-13T00:01:51.955Z,0.16
2022-12-13T00:04:21.011Z,0.13
2022-12-13T00:06:48.940Z,0.09
2022-12-13T00:09:18.681Z,0.10
2022-12-13T00:11:46.176Z,0.07
2022-12-13T00:14:14.109Z,0.05
2022-12-13T00:16:45.633Z,0.03
2022-12-13T00:19:13.136Z,0.02
2022-12-13T00:21:40.564Z,0.04
2022-12-13T00:24:08.200Z,0.02
2022-12-13T00:26:35.254Z,0.04
2022-12-13T00:29:07.428Z,0.04
2022-12-13T00:34:22.620Z,0.01
2022-12-13T00:36:49.800Z,0.01
2022-12-13T00:39:19.102Z,0.05
2022-12-13T00:41:47.216Z,0.04
2022-12-13T00:44:15.006Z,0.06
2022-12-13T00:46:43.096Z,0.06
2022-12-13T00:49:12.812Z,0.05
2022-12-13T00:51:40.836Z,0.04
2022-12-13T00:54:07.834Z,0.04
2022-12-13T00:56:34.685Z,0.02
2022-12-13T00:59:01.613Z,0.01
2022-12-13T01:01:32.745Z,-0.02
2022-12-13T01:04:03.093Z,-0.05
2022-12-13T01:06:39.367Z,-0.07
2022-12-13T01:09:14.375Z,-0.08
2022-12-13T01:11:41.112Z,-0.14
2022-12-13T01:14:07.823Z,-0.17
2022-12-13T01:16:34.711Z,-0.18
2022-12-13T01:19:01.552Z,-0.23
2022-12-13T01:21:29.856Z,-0.24
2022-12-13T01:24:05.282Z,-0.26
2022-12-13T01:26:33.638Z,-0.28
2022-12-13T01:29:00.716Z,-0.31
2022-12-13T01:31:27.952Z,-0.33
2022-12-13T01:33:54.870Z,-0.34
2022-12-13T01:36:27.511Z,-0.36
2022-12-13T01:38:58.672Z,-0.38
2022-12-13T01:41:28.681Z,-0.40
2022-12-13T01:44:03.433Z,-0.43
2022-12-13T01:46:34.803Z,-0.46
2022-12-13T01:49:19.329Z,-0.47
2022-12-13T01:52:02.848Z,-0.50
2022-12-13T01:54:36.430Z,-0.55
2022-12-13T01:57:08.512Z,-0.55
2022-12-13T01:59:41.587Z,-0.56
2022-12-13T02:02:12.605Z,-0.58
2022-12-13T02:04:59.910Z,-0.58
2022-12-13T02:07:34.116Z,-0.63
2022-12-13T02:10:06.243Z,-0.63
2022-12-13T02:12:36.660Z,-0.65
2022-12-13T02:15:11.630Z,-0.65
2022-12-13T02:18:20.499Z,-0.68
2022-12-13T02:21:04.319Z,-0.71
2022-12-13T02:23:52.527Z,-0.73
2022-12-13T02:26:52.034Z,-0.76
2022-12-13T02:30:04.393Z,-0.80
2022-12-13T02:32:41.626Z,-0.84
2022-12-13T02:35:25.909Z,-0.87
2022-12-13T02:38:44.903Z,-0.90
2022-12-13T02:41:50.745Z,-0.98
2022-12-13T02:44:31.645Z,-1.02
2022-12-13T02:47:06.695Z,-1.02
2022-12-13T02:49:46.996Z,-1.00
2022-12-13T02:52:22.492Z,-1.00
2022-12-13T02:54:49.737Z,-0.99
2022-12-13T02:57:38.713Z,-1.00
2022-12-13T03:00:11.369Z,-1.03
2022-12-13T03:03:18.614Z,-1.02
2022-12-13T03:06:34.225Z,-1.05
2022-12-13T03:09:28.113Z,-1.11
2022-12-13T03:12:51.681Z,-1.14
2022-12-13T03:15:34.369Z,-1.19
2022-12-13T03:18:17.261Z,-1.20
2022-12-13T03:21:01.150Z,-1.20
2022-12-13T03:23:28.772Z,-1.22
2022-12-13T03:26:01.857Z,-1.25
2022-12-13T03:28:28.921Z,-1.25
2022-12-13T03:30:55.694Z,-1.27
2022-12-13T03:33:22.729Z,-1.29
2022-12-13T03:35:49.689Z,-1.30
2022-12-13T03:38:22.154Z,-1.31
2022-12-13T03:40:58.945Z,-1.34
2022-12-13T03:43:26.337Z,-1.35
2022-12-13T03:45:54.241Z,-1.34
2022-12-13T03:48:23.244Z,-1.36
2022-12-13T03:50:53.547Z,-1.36
2022-12-13T03:53:33.481Z,-1.35
2022-12-13T03:56:04.869Z,-1.35
2022-12-13T03:58:36.220Z,-1.35
2022-12-13T04:01:13.649Z,-1.35
2022-12-13T04:03:43.815Z,-1.35
2022-12-13T04:06:11.512Z,-1.38
2022-12-13T04:08:39.373Z,-1.37
2022-12-13T04:11:25.338Z,-1.38
2022-12-13T04:13:54.382Z,-1.39
2022-12-13T04:16:23.235Z,-1.42
2022-12-13T04:18:50.310Z,-1.42
2022-12-13T04:21:17.144Z,-1.45
2022-12-13T04:23:43.992Z,-1.43
2022-12-13T04:26:10.758Z,-1.42
2022-12-13T04:28:37.504Z,-1.41
2022-12-13T04:31:04.523Z,-1.40
2022-12-13T04:33:32.638Z,-1.40
2022-12-13T04:35:59.826Z,-1.42
2022-12-13T04:38:26.912Z,-1.42
2022-12-13T04:40:53.684Z,-1.41
2022-12-13T04:43:20.444Z,-1.41
2022-12-13T04:45:47.286Z,-1.43
2022-12-13T04:48:30.535Z,-1.43
2022-12-13T04:50:58.948Z,-1.46
2022-12-13T04:53:30.020Z,-1.45
2022-12-13T04:55:57.228Z,-1.44
2022-12-13T04:58:23.992Z,-1.45
2022-12-13T05:00:50.764Z,-1.46
2022-12-13T05:03:17.562Z,-1.48
2022-12-13T05:05:44.360Z,-1.47
2022-12-13T05:08:11.306Z,-1.44
2022-12-13T05:10:38.298Z,-1.43
2022-12-13T05:13:06.156Z,-1.42
2022-12-13T05:15:33.968Z,-1.42
2022-12-13T05:18:09.516Z,-1.42
2022-12-13T05:20:37.643Z,-1.44
2022-12-13T05:23:04.360Z,-1.43
2022-12-13T05:25:31.053Z,-1.40
2022-12-13T05:27:57.855Z,-1.40
2022-12-13T05:30:24.678Z,-1.41
2022-12-13T05:32:51.407Z,-1.42
2022-12-13T05:35:23.195Z,-1.42
2022-12-13T05:37:55.315Z,-1.41
2022-12-13T05:40:24.044Z,-1.43
2022-12-13T05:42:50.929Z,-1.43
2022-12-13T05:45:19.567Z,-1.41
2022-12-13T05:47:47.767Z,-1.41
2022-12-13T05:50:16.752Z,-1.42
2022-12-13T05:52:44.221Z,-1.40
2022-12-13T05:55:12.216Z,-1.37
2022-12-13T05:57:39.177Z,-1.36
2022-12-13T06:00:29.018Z,-1.35
2022-12-13T06:02:56.500Z,-1.35
2022-12-13T06:05:27.639Z,-1.36
2022-12-13T06:07:57.635Z,-1.34
2022-12-13T06:10:25.057Z,-1.31
2022-12-13T06:13:21.545Z,-1.28
2022-12-13T06:16:00.981Z,-1.29
2022-12-13T06:18:30.996Z,-1.26
2022-12-13T06:21:04.008Z,-0.98
2022-12-13T06:23:32.607Z,-0.81
2022-12-13T06:26:02.010Z,-0.87
2022-12-13T06:28:29.010Z,-0.92
2022-12-13T06:30:59.481Z,-0.97
2022-12-13T06:33:26.222Z,-0.93
2022-12-13T06:35:58.928Z,-0.90
2022-12-13T06:38:31.541Z,-0.88
2022-12-13T06:41:11.557Z,-0.86
2022-12-13T06:43:42.275Z,-0.85
2022-12-13T06:46:09.801Z,-0.83
2022-12-13T06:48:36.835Z,-0.81
2022-12-13T06:51:05.123Z,-0.77
2022-12-13T06:53:32.772Z,-0.75
2022-12-13T06:56:08.636Z,-0.72
2022-12-13T06:58:36.963Z,-0.73
2022-12-13T07:01:23.852Z,-0.73
2022-12-13T07:03:54.170Z,-0.74
2022-12-13T07:06:23.614Z,-0.75
2022-12-13T07:08:57.137Z,-0.75
2022-12-13T07:11:28.012Z,-0.75
2022-12-13T07:13:55.793Z,-0.77
2022-12-13T07:16:24.183Z,-0.78
2022-12-13T07:19:00.700Z,-0.83
2022-12-13T07:21:29.366Z,-0.85
2022-12-13T07:23:56.485Z,-0.88
2022-12-13T07:26:23.657Z,-0.90
2022-12-13T07:28:55.058Z,-0.92
2022-12-13T07:31:24.109Z,-0.95
2022-12-13T07:33:51.175Z,-0.97
2022-12-13T07:36:21.932Z,-0.96
2022-12-13T07:38:57.462Z,-0.98
2022-12-13T07:41:26.129Z,-1.00
2022-12-13T07:43:55.262Z,-0.99
2022-12-13T07:46:32.323Z,-0.98
2022-12-13T07:49:02.889Z,-1.00
2022-12-13T07:51:29.814Z,-0.99
2022-12-13T07:53:57.543Z,-0.97
2022-12-13T07:56:24.265Z,-0.96
2022-12-13T07:58:51.232Z,-0.92
2022-12-13T08:01:18.518Z,-0.89
2022-12-13T08:03:48.712Z,-0.87
2022-12-13T08:06:15.751Z,-0.86
2022-12-13T08:08:42.772Z,-0.83
2022-12-13T08:11:13.858Z,-0.78
2022-12-13T08:13:41.429Z,-0.76
2022-12-13T08:16:27.597Z,-0.73
2022-12-13T08:19:02.885Z,-0.71
2022-12-13T08:21:57.164Z,-0.66
2022-12-13T08:24:27.599Z,-0.63
2022-12-13T08:27:02.190Z,-0.60
2022-12-13T08:29:34.685Z,-0.55
2022-12-13T08:32:11.667Z,-0.44
2022-12-13T08:34:39.181Z,-0.24
2022-12-13T08:37:06.129Z,-0.01
2022-12-13T08:39:36.575Z,0.20
2022-12-13T08:42:19.445Z,0.40
2022-12-13T08:44:52.321Z,0.64
2022-12-13T08:47:25.992Z,0.92
2022-12-13T08:50:04.026Z,1.20
2022-12-13T08:52:40.381Z,1.52
2022-12-13T08:55:13.606Z,1.93
2022-12-13T08:57:42.788Z,2.27
2022-12-13T09:00:17.241Z,2.51
2022-12-13T09:02:44.540Z,2.68
2022-12-13T09:05:12.988Z,2.89
2022-12-13T09:07:41.064Z,3.07
2022-12-13T09:10:26.961Z,3.23
2022-12-13T09:13:01.327Z,3.26
2022-12-13T09:15:33.960Z,3.25
2022-12-13T09:18:05.164Z,3.26
2022-12-13T09:20:41.211Z,3.36
2022-12-13T09:23:13.902Z,3.57
2022-12-13T09:25:56.082Z,3.81
2022-12-13T09:28:33.103Z,4.04
2022-12-13T09:30:59.806Z,4.36
2022-12-13T09:33:30.009Z,4.75
2022-12-13T09:35:57.996Z,5.06
2022-12-13T09:38:27.905Z,5.36
2022-12-13T09:40:58.767Z,5.68
2022-12-13T09:43:42.628Z,6.00
2022-12-13T09:46:27.487Z,6.32
2022-12-13T09:49:13.415Z,6.63
2022-12-13T09:51:44.992Z,6.95
2022-12-13T09:54:24.159Z,7.31
2022-12-13T09:56:53.826Z,7.59
2022-12-13T09:59:29.932Z,7.73
2022-12-13T10:02:03.770Z,7.69
2022-12-13T10:04:30.551Z,7.60
2022-12-13T10:06:59.524Z,7.62
2022-12-13T10:09:26.962Z,7.71
2022-12-13T10:11:54.473Z,7.83
2022-12-13T10:14:39.626Z,7.93
2022-12-13T10:17:09.496Z,8.09
2022-12-13T10:19:44.529Z,8.30
2022-12-13T10:22:16.629Z,8.48
2022-12-13T10:24:55.356Z,8.62
2022-12-13T10:27:40.391Z,8.71
2022-12-13T10:30:13.577Z,8.75
2022-12-13T10:32:56.854Z,8.74
2022-12-13T10:35:34.446Z,8.65
2022-12-13T10:38:31.655Z,8.57
2022-12-13T10:41:01.206Z,8.51
2022-12-13T10:43:30.337Z,8.54
2022-12-13T10:46:04.072Z,8.55
2022-12-13T10:48:49.105Z,8.50
2022-12-13T10:51:20.160Z,8.43
2022-12-13T10:53:57.284Z,8.45
2022-12-13T10:56:37.249Z,8.56
2022-12-13T10:59:25.045Z,8.69
2022-12-13T11:01:52.165Z,8.82
2022-12-13T11:04:32.456Z,8.91
2022-12-13T11:07:23.057Z,8.91
2022-12-13T11:09:52.577Z,8.92
2022-12-13T11:12:27.552Z,8.95
2022-12-13T11:15:03.424Z,8.96
2022-12-13T11:17:36.535Z,8.76
2022-12-13T11:20:17.685Z,8.44
2022-12-13T11:22:44.522Z,8.16
2022-12-13T11:25:33.560Z,7.91
2022-12-13T11:28:26.519Z,7.69
2022-12-13T11:31:45.659Z,7.46
2022-12-13T11:34:59.938Z,7.24
2022-12-13T11:37:50.621Z,7.07
2022-12-13T11:40:32.744Z,6.94
2022-12-13T11:43:16.992Z,6.87
2022-12-13T11:45:54.239Z,6.80
2022-12-13T11:48:58.585Z,6.78
2022-12-13T11:51:47.632Z,6.71
2022-12-13T11:54:26.883Z,6.65
2022-12-13T11:57:00.782Z,6.57
2022-12-13T11:59:39.807Z,6.52
2022-12-13T12:02:29.407Z,6.46
2022-12-13T12:05:00.895Z,6.42
2022-12-13T12:07:53.166Z,6.35
2022-12-13T12:10:49.304Z,6.18
2022-12-13T12:13:34.086Z,5.97
2022-12-13T12:16:28.114Z,5.73
2022-12-13T12:18:55.015Z,5.54
2022-12-13T12:25:24.083Z,5.08
2022-12-13T12:28:34.380Z,4.84
2022-12-13T12:31:19.755Z,4.67
2022-12-13T12:34:15.677Z,4.59
2022-12-13T12:36:52.510Z,4.48
2022-12-13T12:39:48.462Z,4.42
2022-12-13T12:43:13.929Z,4.34
2022-12-13T12:46:24.706Z,4.23
2022-12-13T12:49:17.548Z,4.14
2022-12-13T12:52:25.198Z,4.06
2022-12-13T12:55:11.743Z,3.96
2022-12-13T12:58:02.485Z,3.89
2022-12-13T13:00:42.280Z,3.82
2022-12-13T13:03:24.263Z,3.77
2022-12-13T13:06:05.884Z,3.70
2022-12-13T13:09:04.067Z,3.66
2022-12-13T13:11:43.386Z,3.61
2022-12-13T13:14:31.533Z,3.60
2022-12-13T13:17:24.202Z,3.59
2022-12-13T13:20:15.883Z,3.58
2022-12-13T13:22:43.340Z,3.58
2022-12-13T13:25:37.181Z,3.58
2022-12-13T13:28:17.813Z,3.56
2022-12-13T13:31:10.558Z,3.58
2022-12-13T13:33:51.374Z,3.58
2022-12-13T13:36:46.599Z,3.61
2022-12-13T13:40:00.516Z,3.63
2022-12-13T13:42:30.519Z,3.60
2022-12-13T13:45:18.828Z,3.64
2022-12-13T13:48:27.399Z,3.62
2022-12-13T13:52:08.471Z,3.60
2022-12-13T13:55:12.051Z,3.56
2022-12-13T13:58:43.730Z,3.57
2022-12-13T14:02:01.373Z,3.51
2022-12-13T14:04:40.451Z,3.49
2022-12-13T14:07:40.138Z,3.50
2022-12-13T14:10:57.482Z,3.47
2022-12-13T14:14:21.652Z,3.41
2022-12-13T14:16:49.286Z,3.35
2022-12-13T14:19:56.689Z,3.33
2022-12-13T14:22:43.413Z,3.30
2022-12-13T14:25:45.091Z,3.30
2022-12-13T14:28:43.504Z,3.30
2022-12-13T14:31:43.803Z,3.29
2022-12-13T14:34:26.357Z,3.29
2022-12-13T14:37:03.022Z,3.32
2022-12-13T14:39:33.982Z,3.32
2022-12-13T14:42:20.140Z,3.32
2022-12-13T14:44:46.838Z,3.33
2022-12-13T14:47:14.832Z,3.33
2022-12-13T14:49:50.547Z,3.32
2022-12-13T14:52:27.126Z,3.28
2022-12-13T14:55:05.450Z,3.25
2022-12-13T14:57:34.951Z,3.24
2022-12-13T15:00:22.701Z,3.21
2022-12-13T15:02:57.198Z,3.19
2022-12-13T15:05:30.132Z,3.17
2022-12-13T15:07:58.303Z,3.15
2022-12-13T15:10:41.909Z,3.13
2022-12-13T15:13:31.263Z,3.08
2022-12-13T15:16:10.468Z,3.01
2022-12-13T15:18:38.449Z,3.00
2022-12-13T15:21:22.780Z,2.97
2022-12-13T15:23:51.463Z,2.92
2022-12-13T15:26:29.442Z,2.88
2022-12-13T15:29:09.839Z,2.82
2022-12-13T15:31:39.997Z,2.76
2022-12-13T15:34:30.535Z,2.72
2022-12-13T15:37:31.722Z,2.65
2022-12-13T15:40:07.316Z,2.58
2022-12-13T15:42:38.911Z,2.56
2022-12-13T15:45:19.790Z,2.52
2022-12-13T15:47:48.068Z,2.48
2022-12-13T15:50:40.032Z,2.45
2022-12-13T15:53:28.478Z,2.42
2022-12-13T15:55:55.890Z,2.39
2022-12-13T15:58:42.946Z,2.38
2022-12-13T16:01:33.443Z,2.51
2022-12-13T16:04:03.599Z,2.58
2022-12-13T16:06:33.444Z,2.48
2022-12-13T16:09:04.040Z,2.42
2022-12-13T16:11:38.273Z,2.36
2022-12-13T16:14:33.082Z,2.30
2022-12-13T16:17:22.299Z,2.23
2022-12-13T16:19:49.195Z,2.20
2022-12-13T16:22:17.660Z,2.16
2022-12-13T16:24:44.338Z,2.15
2022-12-13T16:27:11.103Z,2.15
2022-12-13T16:29:37.889Z,2.15
2022-12-13T16:32:08.368Z,2.15
2022-12-13T16:34:37.110Z,2.15
2022-12-13T16:37:08.367Z,2.16
2022-12-13T16:39:35.741Z,2.12
2022-12-13T16:42:03.048Z,2.11
2022-12-13T16:44:37.444Z,2.12
2022-12-13T16:47:12.609Z,2.11
2022-12-13T16:49:45.529Z,2.09
2022-12-13T16:52:12.299Z,2.10
2022-12-13T16:54:39.103Z,2.09
2022-12-13T16:57:06.113Z,2.10
2022-12-13T16:59:32.924Z,2.09
2022-12-13T17:01:59.683Z,2.09
2022-12-13T17:04:29.448Z,2.08
2022-12-13T17:06:56.454Z,2.04
2022-12-13T17:09:25.221Z,2.03
2022-12-13T17:11:52.207Z,2.00
2022-12-13T17:14:18.913Z,1.94
2022-12-13T17:16:45.698Z,1.93
2022-12-13T17:19:15.348Z,1.92
2022-12-13T17:21:42.078Z,1.91
2022-12-13T17:24:08.995Z,1.90
2022-12-13T17:26:35.736Z,1.88
2022-12-13T17:29:02.918Z,1.88
2022-12-13T17:31:35.171Z,1.87
2022-12-13T17:34:03.925Z,1.86
2022-12-13T17:36:31.467Z,1.86
2022-12-13T17:38:58.550Z,1.86
2022-12-13T17:41:25.503Z,1.85
2022-12-13T17:43:52.290Z,1.86
2022-12-13T17:46:19.312Z,1.87
2022-12-13T17:48:46.608Z,1.91
2022-12-13T17:51:14.002Z,1.91
2022-12-13T17:53:43.308Z,1.91
2022-12-13T17:56:13.421Z,1.93
2022-12-13T17:58:40.235Z,1.94
2022-12-13T18:01:20.896Z,1.96
2022-12-13T18:03:49.041Z,1.95
2022-12-13T18:06:16.146Z,1.94
2022-12-13T18:08:44.472Z,1.95
2022-12-13T18:14:04.609Z,1.94
2022-12-13T18:16:38.016Z,1.92
2022-12-13T18:19:08.849Z,1.92
2022-12-13T18:21:36.794Z,1.93
2022-12-13T18:24:06.390Z,1.91
2022-12-13T18:26:34.303Z,1.90
2022-12-13T18:29:01.933Z,1.91
2022-12-13T18:31:28.761Z,1.90
2022-12-13T18:33:55.865Z,1.91
2022-12-13T18:36:25.462Z,1.92
2022-12-13T18:38:53.079Z,1.91
2022-12-13T18:41:24.550Z,1.94
2022-12-13T18:44:08.075Z,1.91
2022-12-13T18:46:38.047Z,1.92
2022-12-13T18:49:06.873Z,1.93
2022-12-13T18:51:34.179Z,1.95
2022-12-13T18:54:01.008Z,1.94
2022-12-13T18:56:28.230Z,1.95
2022-12-13T18:58:56.847Z,1.94
2022-12-13T19:01:26.914Z,1.95
2022-12-13T19:03:54.359Z,1.92
2022-12-13T19:06:25.815Z,1.93
2022-12-13T19:08:56.372Z,1.92
2022-12-13T19:11:26.517Z,1.90
2022-12-13T19:13:53.962Z,1.88
2022-12-13T19:16:23.086Z,1.88
2022-12-13T19:18:50.004Z,1.87
2022-12-13T19:21:20.789Z,1.87
2022-12-13T19:23:56.508Z,1.86
2022-12-13T19:26:24.706Z,1.85
2022-12-13T19:28:51.473Z,1.83
2022-12-13T19:31:18.314Z,1.80
2022-12-13T19:33:45.077Z,1.81
2022-12-13T19:36:12.199Z,1.83
2022-12-13T19:38:40.340Z,1.81
2022-12-13T19:41:10.439Z,1.81
2022-12-13T19:43:37.702Z,1.79
2022-12-13T19:46:05.278Z,1.78
2022-12-13T19:48:32.401Z,1.77
2022-12-13T19:51:05.309Z,1.78
2022-12-13T19:53:32.554Z,1.77
2022-12-13T19:55:59.511Z,1.78
2022-12-13T19:58:27.074Z,1.77
2022-12-13T20:01:02.817Z,1.79
2022-12-13T20:03:33.665Z,1.79
2022-12-13T20:06:02.544Z,1.76
2022-12-13T20:08:30.089Z,1.76
2022-12-13T20:11:06.359Z,1.77
2022-12-13T20:13:34.309Z,1.75
2022-12-13T20:16:02.222Z,1.70
2022-12-13T20:18:28.964Z,1.67
2022-12-13T20:21:12.467Z,1.64
2022-12-13T20:23:48.945Z,1.57
2022-12-13T20:26:20.623Z,1.53
2022-12-13T20:28:48.879Z,1.48
2022-12-13T20:31:28.860Z,1.45
2022-12-13T20:33:58.221Z,1.40
2022-12-13T20:36:28.524Z,1.37
2022-12-13T20:38:59.923Z,1.34
2022-12-13T20:41:29.839Z,1.30
2022-12-13T20:43:58.751Z,1.24
2022-12-13T20:46:28.552Z,1.22
2022-12-13T20:48:57.702Z,1.20
2022-12-13T20:51:28.161Z,1.19
2022-12-13T20:53:56.366Z,1.17
2022-12-13T20:56:30.222Z,1.17
2022-12-13T20:58:57.320Z,1.16
2022-12-13T21:01:26.236Z,1.14
2022-12-13T21:03:55.285Z,1.13
2022-12-13T21:06:22.466Z,1.11
2022-12-13T21:08:51.810Z,1.07
2022-12-13T21:11:43.089Z,1.09
2022-12-13T21:14:18.848Z,1.06
2022-12-13T21:16:50.258Z,1.07
2022-12-13T21:19:24.884Z,1.06
2022-12-13T21:21:53.174Z,1.09
2022-12-13T21:24:22.426Z,1.11
2022-12-13T21:26:51.148Z,1.12
2022-12-13T21:29:18.687Z,1.12
2022-12-13T21:31:49.988Z,1.13
2022-12-13T21:34:18.383Z,1.11
2022-12-13T21:36:48.220Z,1.10
2022-12-13T21:39:18.844Z,1.11
2022-12-13T21:41:45.668Z,1.06
2022-12-13T21:44:17.250Z,1.05
2022-12-13T21:49:30.798Z,0.97
2022-12-13T21:51:57.604Z,0.94
2022-12-13T21:54:24.337Z,0.92
2022-12-13T21:57:09.669Z,0.88
2022-12-13T21:59:36.399Z,0.85
2022-12-13T22:02:17.442Z,0.84
2022-12-13T22:04:49.576Z,0.84
2022-12-13T22:07:30.233Z,0.82
2022-12-13T22:09:58.577Z,0.81
2022-12-13T22:12:35.220Z,0.81
2022-12-13T22:15:04.503Z,0.80
2022-12-13T22:17:35.649Z,0.81
2022-12-13T22:20:10.794Z,0.83
2022-12-13T22:22:42.608Z,0.82
2022-12-13T22:25:10.070Z,0.85
2022-12-13T22:27:36.884Z,0.86
2022-12-13T22:30:04.994Z,0.87
2022-12-13T22:32:32.565Z,0.88
2022-12-13T22:34:59.617Z,0.89
2022-12-13T22:37:27.227Z,0.90
2022-12-13T22:39:54.204Z,0.90
2022-12-13T22:42:21.635Z,0.92
2022-12-13T22:44:48.443Z,0.93
2022-12-13T22:47:15.863Z,0.95
2022-12-13T22:49:42.564Z,0.94
2022-12-13T22:52:09.292Z,0.95
2022-12-13T22:54:36.232Z,0.94
2022-12-13T22:57:03.617Z,0.95
2022-12-13T22:59:30.648Z,0.96
2022-12-13T23:02:02.095Z,0.97
2022-12-13T23:04:30.389Z,0.97
2022-12-13T23:06:57.338Z,0.95
2022-12-13T23:09:24.046Z,0.93
2022-12-13T23:12:09.695Z,0.93
2022-12-13T23:14:36.410Z,0.89
2022-12-13T23:17:04.076Z,0.91
2022-12-13T23:19:41.599Z,0.92
2022-12-13T23:22:19.588Z,0.93
2022-12-13T23:24:46.342Z,0.96
2022-12-13T23:27:13.059Z,0.96
2022-12-13T23:29:39.956Z,0.97
2022-12-13T23:32:06.997Z,0.98
2022-12-13T23:34:33.844Z,0.99
2022-12-13T23:37:00.591Z,0.97
2022-12-13T23:39:27.336Z,0.98
2022-12-13T23:41:54.114Z,0.97
2022-12-13T23:44:21.076Z,0.96
2022-12-13T23:46:48.381Z,0.96
2022-12-13T23:49:15.465Z,0.94
2022-12-13T23:51:42.262Z,0.93
2022-12-13T23:54:14.432Z,0.93
2022-12-13T23:56:41.151Z,0.91
2022-12-13T23:59:07.893Z,0.86
